createdAt,value
2023-03-24T00:01:38.419Z,5.50
2023-03-24T00:04:08.363Z,5.27
2023-03-24T00:06:38.376Z,4.90
2023-03-24T00:09:08.374Z,5.60
2023-03-24T00:11:39.118Z,5.03
2023-03-24T00:14:12.731Z,5.37
2023-03-24T00:16:43.873Z,4.30
2023-03-24T00:19:15.501Z,4.67
2023-03-24T00:21:45.428Z,4.90
2023-03-24T00:24:15.335Z,4.80
2023-03-24T00:26:44.851Z,5.27
2023-03-24T00:29:15.965Z,5.20
2023-03-24T00:31:45.596Z,4.60
2023-03-24T00:34:15.207Z,5.10
2023-03-24T00:36:44.810Z,5.07
2023-03-24T00:39:14.415Z,4.77
2023-03-24T00:41:45.677Z,4.87
2023-03-24T00:44:19.776Z,5.63
2023-03-24T00:46:56.652Z,5.80
2023-03-24T00:49:42.962Z,5.47
2023-03-24T00:52:13.696Z,5.20
2023-03-24T00:54:44.016Z,4.70
2023-03-24T00:57:15.328Z,5.70
2023-03-24T00:59:49.686Z,5.93
2023-03-24T01:02:22.772Z,6.03
2023-03-24T01:04:55.756Z,6.07
2023-03-24T01:07:26.099Z,5.50
2023-03-24T01:09:59.266Z,5.37
2023-03-24T01:12:30.711Z,5.27
2023-03-24T01:15:06.262Z,6.10
2023-03-24T01:17:36.573Z,5.47
2023-03-24T01:20:08.741Z,5.90
2023-03-24T01:22:38.545Z,5.90
2023-03-24T01:25:09.907Z,5.97
2023-03-24T01:27:39.817Z,4.90
2023-03-24T01:30:14.758Z,5.40
2023-03-24T01:32:44.424Z,6.17
2023-03-24T01:35:14.591Z,5.23
2023-03-24T01:37:44.180Z,5.03
2023-03-24T01:40:19.523Z,5.03
2023-03-24T01:42:49.243Z,5.33
2023-03-24T01:45:53.896Z,4.97
2023-03-24T01:48:27.674Z,5.77
2023-03-24T01:51:01.461Z,5.93
2023-03-24T01:53:31.896Z,5.60
2023-03-24T01:56:04.067Z,6.03
2023-03-24T01:58:34.494Z,5.50
2023-03-24T02:01:08.228Z,6.10
2023-03-24T02:03:40.696Z,6.33
2023-03-24T02:06:10.794Z,5.20
2023-03-24T02:08:44.293Z,6.60
2023-03-24T02:11:13.915Z,6.30
2023-03-24T02:13:43.617Z,5.77
2023-03-24T02:16:36.186Z,5.83
2023-03-24T02:19:39.148Z,5.70
2023-03-24T02:23:07.320Z,5.57
2023-03-24T02:26:15.546Z,4.87
2023-03-24T02:28:51.709Z,5.07
2023-03-24T02:32:00.880Z,4.77
2023-03-24T02:35:09.648Z,5.67
2023-03-24T02:38:12.855Z,5.07
2023-03-24T02:40:49.006Z,4.70
2023-03-24T02:43:33.677Z,4.53
2023-03-24T02:46:14.534Z,4.30
2023-03-24T02:49:00.736Z,3.97
2023-03-24T02:51:35.456Z,4.27
2023-03-24T02:54:13.672Z,4.37
2023-03-24T02:56:48.543Z,4.50
2023-03-24T02:59:24.040Z,4.00
2023-03-24T03:02:00.613Z,4.70
2023-03-24T03:04:34.846Z,4.13
2023-03-24T03:07:10.289Z,3.80
2023-03-24T03:09:43.485Z,3.70
2023-03-24T03:12:16.248Z,4.03
2023-03-24T03:14:51.085Z,4.47
2023-03-24T03:17:25.788Z,3.80
2023-03-24T03:19:58.788Z,3.50
2023-03-24T03:22:34.547Z,4.00
2023-03-24T03:25:06.397Z,4.20
2023-03-24T03:27:39.697Z,4.23
2023-03-24T03:30:15.452Z,4.30
2023-03-24T03:32:54.841Z,4.13
2023-03-24T03:35:29.501Z,4.27
2023-03-24T03:38:06.902Z,4.07
2023-03-24T03:40:40.591Z,4.13
2023-03-24T03:43:12.144Z,3.97
2023-03-24T03:45:41.771Z,3.57
2023-03-24T03:48:12.130Z,4.20
2023-03-24T03:50:41.893Z,4.47
2023-03-24T03:53:13.457Z,3.80
2023-03-24T03:55:43.612Z,4.60
2023-03-24T03:58:15.020Z,4.87
2023-03-24T04:00:46.268Z,4.20
2023-03-24T04:03:44.689Z,5.27
2023-03-24T04:06:25.914Z,4.50
2023-03-24T04:09:06.481Z,4.30
2023-03-24T04:11:49.125Z,4.80
2023-03-24T04:14:42.461Z,4.30
2023-03-24T04:17:22.309Z,5.27
2023-03-24T04:20:02.567Z,4.50
2023-03-24T04:22:46.105Z,4.60
2023-03-24T04:25:20.579Z,4.83
2023-03-24T04:27:57.505Z,4.50
2023-03-24T04:30:34.897Z,4.97
2023-03-24T04:33:09.210Z,5.40
2023-03-24T04:35:44.884Z,4.80
2023-03-24T04:38:18.858Z,5.43
2023-03-24T04:40:50.624Z,4.60
2023-03-24T04:43:25.564Z,4.80
2023-03-24T04:45:59.530Z,4.87
2023-03-24T04:48:29.376Z,4.83
2023-03-24T04:51:00.739Z,4.67
2023-03-24T04:53:30.938Z,4.87
2023-03-24T04:56:08.429Z,4.93
2023-03-24T04:58:38.556Z,4.80
2023-03-24T05:01:10.451Z,4.83
2023-03-24T05:03:40.491Z,5.17
2023-03-24T05:06:11.877Z,5.40
2023-03-24T05:08:42.014Z,4.37
2023-03-24T05:11:11.725Z,4.30
2023-03-24T05:13:41.423Z,4.63
2023-03-24T05:16:12.996Z,4.57
2023-03-24T05:18:42.718Z,4.20
2023-03-24T05:21:12.706Z,4.57
2023-03-24T05:23:42.213Z,4.87
2023-03-24T05:26:11.821Z,4.70
2023-03-24T05:28:41.427Z,4.60
2023-03-24T05:31:12.899Z,4.27
2023-03-24T05:33:42.659Z,4.70
2023-03-24T05:36:13.571Z,4.37
2023-03-24T05:38:43.237Z,4.23
2023-03-24T05:41:12.935Z,4.70
2023-03-24T05:43:42.323Z,3.77
2023-03-24T05:46:13.816Z,4.10
2023-03-24T05:48:43.337Z,4.47
2023-03-24T05:51:12.691Z,4.10
2023-03-24T05:53:42.209Z,4.33
2023-03-24T05:56:13.664Z,4.10
2023-03-24T05:58:45.819Z,4.50
2023-03-24T06:01:18.816Z,3.73
2023-03-24T06:03:49.706Z,3.57
2023-03-24T06:06:19.233Z,4.43
2023-03-24T06:08:48.646Z,4.40
2023-03-24T06:11:18.346Z,3.97
2023-03-24T06:13:48.073Z,3.93
2023-03-24T06:16:24.370Z,4.33
2023-03-24T06:18:54.031Z,5.20
2023-03-24T06:21:33.896Z,4.60
2023-03-24T06:24:04.719Z,4.43
2023-03-24T06:26:34.226Z,4.47
2023-03-24T06:29:06.469Z,5.40
2023-03-24T06:31:38.366Z,4.60
2023-03-24T06:34:08.364Z,5.40
2023-03-24T06:36:37.872Z,4.60
2023-03-24T06:39:08.204Z,5.30
2023-03-24T06:41:38.004Z,3.97
2023-03-24T06:44:07.328Z,4.13
2023-03-24T06:46:39.519Z,4.00
2023-03-24T06:49:09.389Z,4.00
2023-03-24T06:51:40.120Z,4.40
2023-03-24T06:54:09.626Z,4.60
2023-03-24T06:56:39.560Z,4.10
2023-03-24T06:59:09.573Z,3.37
2023-03-24T07:01:40.994Z,4.20
2023-03-24T07:04:10.820Z,4.23
2023-03-24T07:06:58.639Z,3.80
2023-03-24T07:09:33.093Z,4.27
2023-03-24T07:12:03.905Z,4.60
2023-03-24T07:14:33.724Z,4.40
2023-03-24T07:17:04.773Z,4.47
2023-03-24T07:19:34.266Z,5.80
2023-03-24T07:22:03.894Z,5.13
2023-03-24T07:24:33.480Z,5.30
2023-03-24T07:27:02.690Z,4.50
2023-03-24T07:29:32.386Z,5.27
2023-03-24T07:32:02.036Z,4.80
2023-03-24T07:34:33.966Z,6.80
2023-03-24T07:37:03.783Z,4.57
2023-03-24T07:39:33.924Z,5.37
2023-03-24T07:42:03.402Z,4.73
2023-03-24T07:44:37.084Z,5.43
2023-03-24T07:47:09.897Z,4.77
2023-03-24T07:49:41.228Z,5.40
2023-03-24T07:52:10.762Z,4.80
2023-03-24T07:54:40.282Z,4.60
2023-03-24T07:57:11.124Z,5.10
2023-03-24T07:59:40.802Z,4.50
2023-03-24T08:02:17.767Z,5.37
2023-03-24T08:04:49.136Z,5.70
2023-03-24T08:07:22.099Z,4.80
2023-03-24T08:09:51.615Z,4.83
2023-03-24T08:12:21.113Z,4.97
2023-03-24T08:14:50.836Z,5.00
2023-03-24T08:17:20.738Z,5.43
2023-03-24T08:19:59.523Z,4.63
2023-03-24T08:22:31.214Z,4.47
2023-03-24T08:25:00.615Z,4.80
2023-03-24T08:27:30.237Z,4.77
2023-03-24T08:29:59.929Z,4.87
2023-03-24T08:32:29.379Z,4.07
2023-03-24T08:35:01.720Z,4.90
2023-03-24T08:37:31.458Z,3.97
2023-03-24T08:40:06.063Z,4.37
2023-03-24T08:42:35.755Z,4.47
2023-03-24T08:45:05.377Z,4.10
2023-03-24T08:47:34.940Z,3.87
2023-03-24T08:50:07.554Z,4.50
2023-03-24T08:52:37.351Z,3.33
2023-03-24T08:55:08.191Z,4.07
2023-03-24T08:57:37.689Z,3.83
2023-03-24T09:00:14.384Z,3.40
2023-03-24T09:02:45.574Z,3.37
2023-03-24T09:05:21.192Z,4.10
2023-03-24T09:07:54.746Z,3.60
2023-03-24T09:10:24.472Z,3.30
2023-03-24T09:12:54.103Z,3.90
2023-03-24T09:15:23.796Z,3.60
2023-03-24T09:17:53.412Z,4.00
2023-03-24T09:20:24.358Z,3.90
2023-03-24T09:22:53.847Z,3.37
2023-03-24T09:25:24.395Z,3.77
2023-03-24T09:27:54.072Z,3.93
2023-03-24T09:30:23.930Z,4.13
2023-03-24T09:32:53.636Z,3.67
2023-03-24T09:35:24.749Z,3.60
2023-03-24T09:37:54.777Z,3.83
2023-03-24T09:40:27.839Z,3.67
2023-03-24T09:43:03.601Z,3.50
2023-03-24T09:45:37.992Z,4.50
2023-03-24T09:48:12.881Z,2.93
2023-03-24T09:50:53.937Z,3.50
2023-03-24T09:53:34.287Z,3.37
2023-03-24T09:56:11.579Z,3.30
2023-03-24T09:58:42.297Z,3.63
2023-03-24T10:01:16.780Z,2.80
2023-03-24T10:03:47.739Z,3.40
2023-03-24T10:06:26.701Z,2.80
2023-03-24T10:09:08.600Z,2.80
2023-03-24T10:11:44.755Z,2.40
2023-03-24T10:14:27.272Z,2.23
2023-03-24T10:17:03.331Z,2.53
2023-03-24T10:19:42.251Z,2.27
2023-03-24T10:22:21.372Z,2.10
2023-03-24T10:24:57.004Z,2.30
2023-03-24T10:27:32.774Z,2.40
2023-03-24T10:30:09.654Z,3.17
2023-03-24T10:32:40.022Z,2.30
2023-03-24T10:35:16.855Z,1.77
2023-03-24T10:37:48.914Z,2.10
2023-03-24T10:40:22.839Z,2.30
2023-03-24T10:43:07.261Z,2.43
2023-03-24T10:45:42.751Z,2.80
2023-03-24T10:48:15.113Z,2.40
2023-03-24T10:50:46.861Z,2.03
2023-03-24T10:53:23.337Z,2.13
2023-03-24T10:55:53.347Z,2.60
2023-03-24T10:58:31.556Z,2.67
2023-03-24T11:01:02.930Z,2.70
2023-03-24T11:03:37.052Z,2.70
2023-03-24T11:06:08.580Z,2.80
2023-03-24T11:08:42.572Z,2.83
2023-03-24T11:11:32.372Z,3.27
2023-03-24T11:14:03.714Z,2.77
2023-03-24T11:16:37.858Z,2.63
2023-03-24T11:19:21.693Z,3.07
2023-03-24T11:21:54.329Z,2.90
2023-03-24T11:24:26.289Z,3.20
2023-03-24T11:27:00.646Z,2.80
2023-03-24T11:29:32.777Z,2.67
2023-03-24T11:32:04.426Z,3.33
2023-03-24T11:34:39.528Z,3.00
2023-03-24T11:37:14.346Z,3.30
2023-03-24T11:39:46.251Z,2.87
2023-03-24T11:42:19.453Z,3.03
2023-03-24T11:44:51.859Z,2.93
2023-03-24T11:47:27.376Z,3.27
2023-03-24T11:50:25.020Z,3.30
2023-03-24T11:52:58.526Z,2.83
2023-03-24T11:55:36.866Z,3.50
2023-03-24T11:58:14.032Z,3.20
2023-03-24T12:00:50.081Z,3.87
2023-03-24T12:04:01.830Z,3.57
2023-03-24T12:06:48.483Z,3.20
2023-03-24T12:09:26.689Z,3.77
2023-03-24T12:12:22.465Z,4.43
2023-03-24T12:15:24.770Z,3.13
2023-03-24T12:18:09.281Z,3.23
2023-03-24T12:20:47.056Z,3.93
2023-03-24T12:23:24.761Z,3.73
2023-03-24T12:26:18.531Z,4.00
2023-03-24T12:28:57.453Z,3.83
2023-03-24T12:31:57.058Z,4.17
2023-03-24T12:35:03.220Z,3.30
2023-03-24T12:37:40.501Z,3.73
2023-03-24T12:40:58.553Z,3.40
2023-03-24T12:43:38.398Z,5.60
2023-03-24T12:46:19.506Z,4.80
2023-03-24T12:49:10.891Z,4.30
2023-03-24T12:51:47.256Z,4.30
2023-03-24T12:54:30.670Z,4.47
2023-03-24T12:57:04.129Z,3.80
2023-03-24T12:59:38.511Z,4.23
2023-03-24T13:02:24.451Z,4.03
2023-03-24T13:04:58.080Z,4.80
2023-03-24T13:07:29.552Z,5.83
2023-03-24T13:10:05.702Z,5.07
2023-03-24T13:12:42.796Z,4.60
2023-03-24T13:15:20.614Z,4.80
2023-03-24T13:17:56.475Z,5.13
2023-03-24T13:20:29.429Z,4.00
2023-03-24T13:23:01.493Z,4.80
2023-03-24T13:25:39.182Z,4.43
2023-03-24T13:28:15.679Z,4.70
2023-03-24T13:30:47.185Z,3.97
2023-03-24T13:33:22.463Z,3.97
2023-03-24T13:36:12.080Z,3.87
2023-03-24T13:38:46.757Z,4.03
2023-03-24T13:41:21.889Z,4.37
2023-03-24T13:43:54.053Z,4.07
2023-03-24T13:46:24.111Z,4.33
2023-03-24T13:48:59.056Z,4.23
2023-03-24T13:51:31.805Z,4.70
2023-03-24T13:54:06.474Z,4.80
2023-03-24T13:56:37.346Z,4.57
2023-03-24T13:59:27.018Z,4.67
2023-03-24T14:02:19.372Z,4.13
2023-03-24T14:04:51.390Z,4.83
2023-03-24T14:07:44.618Z,5.17
2023-03-24T14:10:43.038Z,4.63
2023-03-24T14:13:40.161Z,4.40
2023-03-24T14:16:29.423Z,4.87
2023-03-24T14:19:11.733Z,5.00
2023-03-24T14:21:43.099Z,5.27
2023-03-24T14:24:21.550Z,5.40
2023-03-24T14:26:51.232Z,5.20
2023-03-24T14:29:41.651Z,5.17
2023-03-24T14:32:20.714Z,4.90
2023-03-24T14:34:56.313Z,5.10
2023-03-24T14:37:29.065Z,4.63
2023-03-24T14:39:59.052Z,5.47
2023-03-24T14:43:21.552Z,4.57
2023-03-24T14:46:04.101Z,3.73
2023-03-24T14:48:39.745Z,4.70
2023-03-24T14:51:21.901Z,4.33
2023-03-24T14:53:52.796Z,4.30
2023-03-24T14:56:23.949Z,4.67
2023-03-24T14:58:58.175Z,3.77
2023-03-24T15:01:32.264Z,4.73
2023-03-24T15:04:05.423Z,4.10
2023-03-24T15:06:34.725Z,4.00
2023-03-24T15:09:12.348Z,4.10
2023-03-24T15:11:43.346Z,3.47
2023-03-24T15:14:22.862Z,3.27
2023-03-24T15:16:59.913Z,3.40
2023-03-24T15:19:31.037Z,3.20
2023-03-24T15:22:03.189Z,3.20
2023-03-24T15:24:36.369Z,2.90
2023-03-24T15:27:26.654Z,3.37
2023-03-24T15:29:59.467Z,3.50
2023-03-24T15:32:32.179Z,3.20
2023-03-24T15:35:06.998Z,3.30
2023-03-24T15:37:40.582Z,4.03
2023-03-24T15:40:36.718Z,3.23
2023-03-24T15:43:08.704Z,3.27
2023-03-24T15:45:50.978Z,3.13
2023-03-24T15:48:22.019Z,3.30
2023-03-24T15:50:59.575Z,3.13
2023-03-24T15:53:30.834Z,3.07
2023-03-24T15:56:08.619Z,3.73
2023-03-24T15:58:54.999Z,3.80
2023-03-24T16:01:31.821Z,3.20
2023-03-24T16:04:03.766Z,3.40
2023-03-24T16:06:36.758Z,3.10
2023-03-24T16:09:10.999Z,3.40
2023-03-24T16:11:42.122Z,3.17
2023-03-24T16:14:23.381Z,3.33
2023-03-24T16:16:57.060Z,3.17
2023-03-24T16:19:26.728Z,2.90
2023-03-24T16:21:56.042Z,3.30
2023-03-24T16:24:25.545Z,2.27
2023-03-24T16:26:56.107Z,2.47
2023-03-24T16:29:25.613Z,2.50
2023-03-24T16:31:59.025Z,2.33
2023-03-24T16:34:27.774Z,2.20
2023-03-24T16:36:57.532Z,2.50
2023-03-24T16:39:28.274Z,2.30
2023-03-24T16:41:58.889Z,2.70
2023-03-24T16:44:28.017Z,2.20
2023-03-24T16:46:57.381Z,2.43
2023-03-24T16:49:26.515Z,2.47
2023-03-24T16:51:56.712Z,2.57
2023-03-24T16:54:25.566Z,2.80
2023-03-24T16:56:54.536Z,3.20
2023-03-24T16:59:25.076Z,2.77
2023-03-24T17:01:56.503Z,3.23
2023-03-24T17:04:27.923Z,2.70
2023-03-24T17:06:56.773Z,3.00
2023-03-24T17:09:26.004Z,2.57
2023-03-24T17:11:57.674Z,3.10
2023-03-24T17:14:28.303Z,2.93
2023-03-24T17:16:57.274Z,2.80
2023-03-24T17:19:26.304Z,3.53
2023-03-24T17:22:01.220Z,3.17
2023-03-24T17:24:31.143Z,2.80
2023-03-24T17:27:01.650Z,2.77
2023-03-24T17:29:32.275Z,3.90
2023-03-24T17:32:01.581Z,3.90
2023-03-24T17:34:31.167Z,3.53
2023-03-24T17:37:03.162Z,3.90
2023-03-24T17:39:32.973Z,3.50
2023-03-24T17:42:03.438Z,2.97
2023-03-24T17:44:38.658Z,3.37
2023-03-24T17:47:08.872Z,3.23
2023-03-24T17:49:39.892Z,2.33
2023-03-24T17:52:09.384Z,3.27
2023-03-24T17:54:41.464Z,2.60
2023-03-24T17:57:12.375Z,2.30
2023-03-24T17:59:48.697Z,2.47
2023-03-24T18:02:18.965Z,3.13
2023-03-24T18:04:51.493Z,2.00
2023-03-24T18:07:23.578Z,4.23
2023-03-24T18:09:53.897Z,2.30
2023-03-24T18:12:23.912Z,3.87
2023-03-24T18:14:56.144Z,4.23
2023-03-24T18:17:26.018Z,3.30
2023-03-24T18:19:56.197Z,2.33
2023-03-24T18:22:26.995Z,2.43
2023-03-24T18:24:59.111Z,2.03
2023-03-24T18:27:30.728Z,4.27
2023-03-24T18:30:02.085Z,4.90
2023-03-24T18:32:34.647Z,2.47
2023-03-24T18:35:09.494Z,1.83
2023-03-24T18:37:45.208Z,2.27
2023-03-24T18:40:18.643Z,2.70
2023-03-24T18:42:53.101Z,2.80
2023-03-24T18:45:24.804Z,2.80
2023-03-24T18:48:00.590Z,2.93
2023-03-24T18:50:31.602Z,3.20
2023-03-24T18:53:03.659Z,2.63
2023-03-24T18:55:35.361Z,2.40
2023-03-24T18:58:10.518Z,2.30
2023-03-24T19:00:47.931Z,2.40
2023-03-24T19:03:19.776Z,2.30
2023-03-24T19:05:54.064Z,2.43
2023-03-24T19:08:25.917Z,2.67
2023-03-24T19:11:01.533Z,2.63
2023-03-24T19:13:35.852Z,2.40
2023-03-24T19:16:09.847Z,2.40
2023-03-24T19:18:44.893Z,3.33
2023-03-24T19:21:18.785Z,3.10
2023-03-24T19:23:56.290Z,3.50
2023-03-24T19:26:27.632Z,3.73
2023-03-24T19:28:59.418Z,4.60
2023-03-24T19:31:36.270Z,4.20
2023-03-24T19:34:10.179Z,5.13
2023-03-24T19:36:48.357Z,4.57
2023-03-24T19:39:27.601Z,4.23
2023-03-24T19:41:58.264Z,4.90
2023-03-24T19:44:32.387Z,4.30
2023-03-24T19:47:05.316Z,4.97
2023-03-24T19:49:36.025Z,5.60
2023-03-24T19:52:07.328Z,4.47
2023-03-24T19:54:41.758Z,4.70
2023-03-24T19:57:18.270Z,5.43
2023-03-24T19:59:55.758Z,6.03
2023-03-24T20:02:31.988Z,6.20
2023-03-24T20:05:04.416Z,6.67
2023-03-24T20:07:41.741Z,6.30
2023-03-24T20:10:15.142Z,6.43
2023-03-24T20:12:49.820Z,5.70
2023-03-24T20:15:21.183Z,6.90
2023-03-24T20:18:22.700Z,5.00
2023-03-24T20:21:03.982Z,5.13
2023-03-24T20:23:35.616Z,4.73
2023-03-24T20:26:07.105Z,5.40
2023-03-24T20:28:39.052Z,5.30
2023-03-24T20:31:11.252Z,5.47
2023-03-24T20:34:07.111Z,4.80
2023-03-24T20:36:39.989Z,5.60
2023-03-24T20:39:10.702Z,5.80
2023-03-24T20:41:44.103Z,6.30
2023-03-24T20:44:16.224Z,6.10
2023-03-24T20:46:48.347Z,5.20
2023-03-24T20:49:22.120Z,6.10
2023-03-24T20:51:55.135Z,7.07
2023-03-24T20:54:35.397Z,6.97
2023-03-24T20:57:08.574Z,6.73
2023-03-24T20:59:40.210Z,8.20
2023-03-24T21:02:16.627Z,6.10
2023-03-24T21:04:49.095Z,6.67
2023-03-24T21:07:20.447Z,6.63
2023-03-24T21:09:54.454Z,5.97
2023-03-24T21:12:24.656Z,7.50
2023-03-24T21:14:55.356Z,6.10
2023-03-24T21:17:34.036Z,7.33
2023-03-24T21:20:13.379Z,5.77
2023-03-24T21:22:53.757Z,6.10
2023-03-24T21:25:24.867Z,6.07
2023-03-24T21:27:54.611Z,5.43
2023-03-24T21:30:25.272Z,5.00
2023-03-24T21:32:57.328Z,5.40
2023-03-24T21:35:28.439Z,4.93
2023-03-24T21:37:57.714Z,4.03
2023-03-24T21:40:28.311Z,4.43
2023-03-24T21:43:04.961Z,5.30
2023-03-24T21:45:36.309Z,4.43
2023-03-24T21:48:07.018Z,3.70
2023-03-24T21:50:39.341Z,4.03
2023-03-24T21:53:15.475Z,4.50
2023-03-24T21:55:51.751Z,4.30
2023-03-24T21:58:21.503Z,4.50
2023-03-24T22:00:52.399Z,4.83
2023-03-24T22:03:21.960Z,4.60
2023-03-24T22:05:57.314Z,3.73
2023-03-24T22:08:30.818Z,4.87
2023-03-24T22:11:00.899Z,3.50
2023-03-24T22:13:30.827Z,4.10
2023-03-24T22:16:01.761Z,4.07
2023-03-24T22:18:33.118Z,4.27
2023-03-24T22:21:05.106Z,3.50
2023-03-24T22:23:36.238Z,4.10
2023-03-24T22:26:07.314Z,3.40
2023-03-24T22:28:36.830Z,3.57
2023-03-24T22:31:08.354Z,3.80
2023-03-24T22:33:38.162Z,5.53
2023-03-24T22:36:10.134Z,4.37
2023-03-24T22:38:39.600Z,5.30
2023-03-24T22:41:11.812Z,5.47
2023-03-24T22:43:41.945Z,4.20
2023-03-24T22:46:11.626Z,4.00
2023-03-24T22:48:40.834Z,3.97
2023-03-24T22:51:17.030Z,3.53
2023-03-24T22:53:45.894Z,3.17
2023-03-24T22:56:15.680Z,3.80
2023-03-24T22:58:44.511Z,3.80
2023-03-24T23:01:13.232Z,4.20
2023-03-24T23:03:42.067Z,3.53
2023-03-24T23:06:13.302Z,3.23
2023-03-24T23:08:42.086Z,3.03
2023-03-24T23:11:12.142Z,3.30
2023-03-24T23:13:40.966Z,3.60
2023-03-24T23:16:10.431Z,3.20
2023-03-24T23:18:39.619Z,3.70
2023-03-24T23:21:10.538Z,3.60
2023-03-24T23:23:42.600Z,3.17
2023-03-24T23:26:25.317Z,3.47
2023-03-24T23:28:55.773Z,3.27
2023-03-24T23:31:27.335Z,3.60
2023-03-24T23:33:58.075Z,3.30
2023-03-24T23:36:28.616Z,4.07
2023-03-24T23:38:58.970Z,3.10
2023-03-24T23:41:27.797Z,3.37
2023-03-24T23:43:56.803Z,3.10
2023-03-24T23:46:26.044Z,2.50
2023-03-24T23:48:55.085Z,3.43
2023-03-24T23:51:23.992Z,3.30
2023-03-24T23:53:52.752Z,3.40
2023-03-24T23:56:23.077Z,3.90
2023-03-24T23:58:52.447Z,3.80
